createdAt,value
2022-09-23T00:03:46.413Z,4.54
2022-09-23T00:08:52.641Z,4.64
2022-09-23T00:13:58.713Z,4.56
2022-09-23T00:19:02.989Z,4.14
2022-09-23T00:24:06.440Z,4.09
2022-09-23T00:29:09.395Z,4.11
2022-09-23T00:34:12.781Z,4.34
2022-09-23T00:39:15.866Z,4.11
2022-09-23T00:44:47.253Z,4.62
2022-09-23T00:50:14.445Z,4.06
2022-09-23T00:55:27.996Z,3.78
2022-09-23T01:00:31.062Z,3.72
2022-09-23T01:05:35.229Z,3.89
2022-09-23T01:11:03.874Z,4.39
2022-09-23T01:16:12.633Z,4.56
2022-09-23T01:21:27.677Z,4.95
2022-09-23T01:26:49.195Z,4.70
2022-09-23T01:32:20.595Z,7.06
2022-09-23T01:37:49.232Z,8.15
2022-09-23T01:42:57.716Z,8.36
2022-09-23T01:48:26.462Z,8.90
2022-09-23T01:53:41.368Z,9.10
2022-09-23T01:59:11.534Z,9.12
2022-09-23T02:04:23.421Z,8.85
2022-09-23T02:09:32.557Z,9.35
2022-09-23T02:14:49.792Z,9.29
2022-09-23T02:19:59.578Z,9.20
2022-09-23T02:25:04.175Z,9.35
2022-09-23T02:30:14.395Z,9.23
2022-09-23T02:35:35.727Z,8.88
2022-09-23T02:40:45.377Z,9.35
2022-09-23T02:45:48.552Z,9.34
2022-09-23T02:50:51.499Z,8.88
2022-09-23T02:55:54.914Z,8.92
2022-09-23T03:01:23.092Z,8.27
2022-09-23T03:06:32.079Z,6.67
2022-09-23T03:11:39.452Z,6.38
2022-09-23T03:17:02.664Z,6.59
2022-09-23T03:22:13.932Z,6.78
2022-09-23T03:27:20.739Z,6.17
2022-09-23T03:32:28.799Z,6.23
2022-09-23T03:37:38.568Z,6.35
2022-09-23T03:42:42.405Z,6.67
2022-09-23T03:47:46.335Z,6.76
2022-09-23T03:52:51.560Z,6.19
2022-09-23T03:57:54.743Z,6.62
2022-09-23T04:02:58.275Z,5.77
2022-09-23T04:08:01.079Z,6.26
2022-09-23T04:13:04.186Z,5.97
2022-09-23T04:18:07.109Z,6.44
2022-09-23T04:23:10.008Z,5.78
2022-09-23T04:28:14.044Z,5.62
2022-09-23T04:33:17.510Z,5.97
2022-09-23T04:38:20.683Z,5.86
2022-09-23T04:43:24.415Z,6.33
2022-09-23T04:48:27.988Z,6.38
2022-09-23T04:53:30.763Z,5.36
2022-09-23T04:58:35.585Z,5.67
2022-09-23T05:03:38.795Z,6.06
2022-09-23T05:08:42.946Z,5.85
2022-09-23T05:13:47.921Z,6.03
2022-09-23T05:18:55.470Z,6.44
2022-09-23T05:24:01.567Z,5.89
2022-09-23T05:29:04.563Z,5.98
2022-09-23T05:34:10.635Z,6.00
2022-09-23T05:39:21.693Z,6.41
2022-09-23T05:44:26.442Z,6.44
2022-09-23T05:49:55.133Z,6.63
2022-09-23T05:54:54.815Z,6.00
2022-09-23T06:00:00.180Z,6.60
2022-09-23T06:05:03.740Z,7.20
2022-09-23T06:10:07.906Z,7.03
2022-09-23T06:15:13.301Z,7.54
2022-09-23T06:20:17.327Z,7.27
2022-09-23T06:25:23.895Z,7.41
2022-09-23T06:30:28.000Z,7.76
2022-09-23T06:35:34.230Z,8.22
2022-09-23T06:40:38.816Z,8.23
2022-09-23T06:45:42.866Z,8.51
2022-09-23T06:50:49.487Z,8.88
2022-09-23T06:56:12.304Z,9.03
2022-09-23T07:01:18.286Z,9.62
2022-09-23T07:06:22.178Z,9.81
2022-09-23T07:11:25.898Z,10.00
2022-09-23T07:16:29.928Z,10.73
2022-09-23T07:21:33.866Z,10.76
2022-09-23T07:26:40.127Z,10.80
2022-09-23T07:31:47.286Z,11.02
2022-09-23T07:36:51.296Z,11.49
2022-09-23T07:41:55.224Z,11.36
2022-09-23T07:46:58.320Z,12.14
2022-09-23T07:52:01.407Z,12.55
2022-09-23T07:57:04.633Z,12.85
2022-09-23T08:02:10.118Z,13.25
2022-09-23T08:07:14.627Z,13.56
2022-09-23T08:12:20.233Z,14.06
2022-09-23T08:17:23.090Z,14.42
2022-09-23T08:22:27.672Z,14.42
2022-09-23T08:27:30.498Z,14.23
2022-09-23T08:32:33.831Z,14.43
2022-09-23T08:37:37.296Z,15.52
2022-09-23T08:42:50.764Z,15.63
2022-09-23T08:48:02.875Z,16.07
2022-09-23T08:53:12.852Z,15.23
2022-09-23T08:58:38.603Z,16.90
2022-09-23T09:03:52.921Z,18.07
2022-09-23T09:09:01.787Z,18.71
2022-09-23T09:14:16.653Z,18.98
2022-09-23T09:19:22.096Z,19.05
2022-09-23T09:39:57.021Z,19.76
2022-09-23T09:49:55.031Z,20.23
2022-09-23T09:55:16.536Z,19.42
2022-09-23T10:00:23.146Z,20.45
2022-09-23T10:05:36.715Z,20.07
2022-09-23T10:16:03.191Z,18.53
2022-09-23T10:21:16.015Z,19.76
2022-09-23T10:26:31.930Z,18.96
2022-09-23T10:31:40.310Z,19.66
2022-09-23T10:42:05.246Z,18.56
2022-09-23T10:51:56.963Z,19.37
2022-09-23T10:57:42.810Z,19.08
2022-09-23T11:02:58.133Z,20.72
2022-09-23T11:08:54.138Z,19.65
2022-09-23T11:14:01.883Z,20.18
2022-09-23T11:19:24.223Z,18.50
2022-09-23T11:24:36.992Z,18.99
2022-09-23T11:29:51.505Z,18.74
2022-09-23T11:35:17.362Z,18.51
2022-09-23T11:40:42.366Z,17.79
2022-09-23T11:46:02.427Z,18.43
2022-09-23T11:51:14.964Z,18.78
2022-09-23T11:56:36.598Z,18.28
2022-09-23T12:01:49.793Z,18.70
2022-09-23T12:07:02.391Z,18.02
2022-09-23T12:12:18.621Z,18.80
2022-09-23T12:18:04.964Z,18.80
2022-09-23T12:23:33.480Z,18.84
2022-09-23T12:28:41.261Z,17.91
2022-09-23T12:39:17.279Z,18.12
2022-09-23T12:44:24.342Z,18.37
2022-09-23T12:49:31.043Z,18.55
2022-09-23T12:54:34.652Z,18.60
2022-09-23T12:59:57.592Z,18.64
2022-09-23T13:05:46.335Z,18.36
2022-09-23T13:11:04.702Z,18.38
2022-09-23T13:16:21.278Z,17.35
2022-09-23T13:21:45.819Z,17.83
2022-09-23T13:26:56.183Z,18.29
2022-09-23T13:32:02.087Z,17.89
2022-09-23T13:37:22.681Z,18.39
2022-09-23T13:42:30.693Z,18.14
2022-09-23T13:52:47.669Z,17.74
2022-09-23T13:57:58.475Z,17.82
2022-09-23T14:03:27.247Z,17.33
2022-09-23T14:13:46.241Z,17.72
2022-09-23T14:18:52.879Z,17.94
2022-09-23T14:23:58.161Z,16.80
2022-09-23T14:29:01.833Z,17.04
2022-09-23T14:34:05.455Z,17.69
2022-09-23T14:39:13.514Z,17.17
2022-09-23T14:44:23.445Z,17.43
2022-09-23T14:49:28.482Z,17.73
2022-09-23T14:54:41.271Z,17.78
2022-09-23T14:59:53.226Z,17.52
2022-09-23T15:05:10.451Z,17.58
2022-09-23T15:10:21.659Z,17.09
2022-09-23T15:15:31.479Z,17.35
2022-09-23T15:20:39.082Z,17.14
2022-09-23T15:25:43.122Z,17.07
2022-09-23T15:30:46.909Z,17.14
2022-09-23T15:35:50.590Z,17.34
2022-09-23T15:40:57.056Z,17.80
2022-09-23T15:46:07.453Z,17.56
2022-09-23T15:51:15.883Z,16.67
2022-09-23T15:56:19.582Z,16.54
2022-09-23T16:01:29.535Z,16.50
2022-09-23T16:06:33.588Z,16.02
2022-09-23T16:11:38.103Z,15.49
2022-09-23T16:16:43.159Z,15.34
2022-09-23T16:21:46.782Z,14.43
2022-09-23T16:26:51.360Z,14.57
2022-09-23T16:31:56.761Z,14.24
2022-09-23T16:37:01.183Z,14.82
2022-09-23T16:42:05.954Z,14.15
2022-09-23T16:47:10.255Z,13.70
2022-09-23T16:52:14.595Z,13.25
2022-09-23T16:57:18.313Z,12.73
2022-09-23T17:02:41.204Z,12.58
2022-09-23T17:07:45.430Z,12.20
2022-09-23T17:12:59.900Z,11.76
2022-09-23T17:18:05.966Z,11.60
2022-09-23T17:23:10.943Z,10.99
2022-09-23T17:28:14.722Z,10.85
2022-09-23T17:33:20.499Z,10.67
2022-09-23T17:38:29.098Z,11.28
2022-09-23T17:43:34.339Z,10.46
2022-09-23T17:48:39.943Z,10.96
2022-09-23T17:53:46.245Z,10.56
2022-09-23T17:58:51.063Z,10.13
2022-09-23T18:19:50.211Z,9.47
2022-09-23T18:24:53.936Z,9.24
2022-09-23T18:29:57.779Z,9.75
2022-09-23T18:35:02.423Z,9.94
2022-09-23T18:40:08.508Z,9.31
2022-09-23T18:45:14.310Z,9.98
2022-09-23T18:50:36.487Z,10.12
2022-09-23T19:05:34.691Z,9.63
2022-09-23T19:10:38.152Z,9.41
2022-09-23T19:15:42.020Z,9.60
2022-09-23T19:20:56.406Z,9.82
2022-09-23T19:26:12.872Z,9.95
2022-09-23T19:31:23.216Z,10.02
2022-09-23T19:36:32.128Z,9.76
2022-09-23T19:41:36.256Z,9.90
2022-09-23T19:46:43.571Z,9.72
2022-09-23T19:51:48.288Z,10.03
2022-09-23T19:56:51.732Z,9.75
2022-09-23T20:01:55.567Z,9.97
2022-09-23T20:06:59.102Z,9.55
2022-09-23T20:12:03.296Z,9.57
2022-09-23T20:17:07.107Z,9.95
2022-09-23T20:22:32.262Z,10.04
2022-09-23T20:27:36.817Z,9.63
2022-09-23T20:32:44.628Z,9.14
2022-09-23T20:37:48.442Z,9.54
2022-09-23T20:42:51.874Z,9.81
2022-09-23T20:47:56.708Z,9.68
2022-09-23T20:53:00.183Z,9.52
2022-09-23T20:58:04.410Z,9.34
2022-09-23T21:03:08.007Z,9.31
2022-09-23T21:08:11.520Z,8.94
2022-09-23T21:13:14.944Z,8.23
2022-09-23T21:18:22.411Z,8.46
2022-09-23T21:23:34.487Z,9.40
2022-09-23T21:28:40.886Z,8.39
2022-09-23T21:33:45.495Z,8.75
2022-09-23T21:38:49.185Z,8.52
2022-09-23T21:43:52.908Z,8.74
2022-09-23T21:48:59.699Z,9.03
2022-09-23T21:54:03.490Z,8.74
2022-09-23T21:59:08.561Z,9.07
2022-09-23T22:04:18.360Z,8.50
2022-09-23T22:09:28.899Z,8.44
2022-09-23T22:14:32.823Z,8.55
2022-09-23T22:19:44.153Z,7.96
2022-09-23T22:24:49.486Z,8.09
2022-09-23T22:30:11.581Z,7.98
2022-09-23T22:35:19.913Z,8.13
2022-09-23T22:40:25.187Z,8.34
2022-09-23T22:45:29.055Z,8.56
2022-09-23T22:50:33.103Z,8.01
2022-09-23T22:55:36.830Z,8.25
2022-09-23T23:00:40.986Z,8.64
2022-09-23T23:05:46.822Z,8.34
2022-09-23T23:10:51.774Z,8.05
2022-09-23T23:15:55.362Z,8.04
2022-09-23T23:21:13.760Z,8.42
2022-09-23T23:26:21.291Z,8.61
2022-09-23T23:31:28.456Z,8.22
2022-09-23T23:36:32.202Z,8.15
2022-09-23T23:41:35.779Z,8.30
2022-09-23T23:46:39.475Z,8.63
2022-09-23T23:51:43.295Z,8.27
2022-09-23T23:56:47.119Z,8.67
